Costa Romantica — IBCR — position and weather

sailwx.info

Track history (hours):
 
Tides and Currents Weather Stations Pressure Air Temp Water Temp Dewpoint Dewpoint Depression Visibility Wind Speed Wind Dir Waves Ship Positions

Costa Romantica

Last reported at 2019-Jul-18 21:35 UTC. Time now 2019-Jul-19 18:39 UTC.
Position N 35°52' E 134°03'.

Length 221 m; draft 7.8 m.

Type: Ship. MMSI: 247817000.

Date/timePositionNaut miles runAvg speedWind from/ knotsBaromVisibWave heightAir tempDewpointWater temp
2019-Jul-18 21:35N 35°52' E 134°03'232 7.0
2019-Jul-17 12:14N 34°59' E 129°26'2 9.3
2019-Jul-17 12:00N 34°59' E 129°24'612.2
2019-Jul-17 11:29N 35°01' E 129°16'510.0
2019-Jul-17 11:00N 35°03' E 129°11'612.3
2019-Jul-17 10:30N 35°06' E 129°05'2 3.1
2019-Jul-17 10:00N 35°07' E 129°03'0 0.0
2019-Jul-17 09:27N 35°07' E 129°03'0 0.0
2019-Jul-17 09:00N 35°07' E 129°03'0 0.0
2019-Jul-17 08:30N 35°07' E 129°03'0 0.0
2019-Jul-17 08:00N 35°07' E 129°03'0 0.0
2019-Jul-17 07:30N 35°07' E 129°03'0 0.0
2019-Jul-17 07:00N 35°07' E 129°03'0 0.0
2019-Jul-17 06:30N 35°07' E 129°03'0 0.0
2019-Jul-17 06:00N 35°07' E 129°03'0 0.0
2019-Jul-17 05:27N 35°07' E 129°03'0 0.0
2019-Jul-17 05:00N 35°07' E 129°03'0 0.0
2019-Jul-17 04:30N 35°07' E 129°03'0 0.0
2019-Jul-17 04:00N 35°07' E 129°03'0 0.0
2019-Jul-17 03:30N 35°07' E 129°03'0 0.0
2019-Jul-17 03:00N 35°07' E 129°03'0 0.0
2019-Jul-17 02:30N 35°07' E 129°03'0 0.0
2019-Jul-17 02:00N 35°07' E 129°03'0 0.0
2019-Jul-17 01:30N 35°07' E 129°03'0 0.0
2019-Jul-17 01:00N 35°07' E 129°03'0 0.0
2019-Jul-17 00:30N 35°07' E 129°03'0 0.0
2019-Jul-17 00:00N 35°07' E 129°03'0 0.3
2019-Jul-16 23:30N 35°07' E 129°03'4 8.2
2019-Jul-16 23:00N 35°05' E 129°07'714.2
2019-Jul-16 22:31N 35°05' E 129°16'228 8.6
2019-Jul-15 20:04N 35°45' E 133°51'1213.3
2019-Jul-15 19:11N 35°49' E 134°05'413.2
2019-Jul-15 18:55N 35°51' E 134°09'18 0.4
2019-Jul-13 21:02N 35°51' E 133°47'216 7.1
2019-Jul-12 14:44N 34°58' E 129°30'314.6
2019-Jul-12 14:30N 34°59' E 129°26'714.1
2019-Jul-12 13:59N 35°01' E 129°17'714.0
2019-Jul-12 13:30N 35°03' E 129°09'510.6
2019-Jul-12 13:00N 35°06' E 129°04'1 2.6
2019-Jul-12 12:30N 35°07' E 129°03'0 0.0
2019-Jul-12 12:00N 35°07' E 129°03'0 0.0
2019-Jul-12 11:30N 35°07' E 129°03'0 0.0
2019-Jul-12 11:00N 35°07' E 129°03'0 0.0
2019-Jul-12 10:30N 35°07' E 129°03'0 0.0
2019-Jul-12 10:00N 35°07' E 129°03'0 0.0
2019-Jul-12 09:30N 35°07' E 129°03'0 0.0
2019-Jul-12 09:00N 35°07' E 129°03'0 0.0
2019-Jul-12 08:30N 35°07' E 129°03'0 0.0
2019-Jul-12 08:00N 35°07' E 129°03'0 0.0
2019-Jul-12 07:30N 35°07' E 129°03'0 0.0
2019-Jul-12 07:00N 35°07' E 129°03'0 0.0
2019-Jul-12 06:30N 35°07' E 129°03'0 0.0
2019-Jul-12 06:00N 35°07' E 129°03'0 0.0
2019-Jul-12 05:30N 35°07' E 129°03'0 0.0
2019-Jul-12 05:00N 35°07' E 129°03'0 0.0
2019-Jul-12 04:30N 35°07' E 129°03'0 0.8
2019-Jul-12 04:00N 35°07' E 129°04'5 9.2
2019-Jul-12 03:30N 35°04' E 129°08'814.7
2019-Jul-12 02:58N 35°06' E 129°18'22116.3
2019-Jul-11 13:26N 35°56' E 133°42'1317.1
2019-Jul-11 12:42N 36°00' E 133°57'1317.4
2019-Jul-11 11:58N 36°04' E 134°12'  
Track history (hours):
 
Tides and Currents Weather Stations Pressure Air Temp Water Temp Dewpoint Dewpoint Depression Visibility Wind Speed Wind Dir Waves Ship Positions

Costa Romantica

Last reported at 2019-Jul-18 21:35 UTC. Time now 2019-Jul-19 18:39 UTC.
Position N 35°52' E 134°03'.

Length 221 m; draft 7.8 m.

Type: Ship. MMSI: 247817000.

Date/timePositionNaut miles runAvg speedWind from/ knotsBaromVisibWave heightAir tempDewpointWater temp
2019-Jul-18 21:35N 35°52' E 134°03'232 7.0
2019-Jul-17 12:14N 34°59' E 129°26'2 9.3
2019-Jul-17 12:00N 34°59' E 129°24'612.2
2019-Jul-17 11:29N 35°01' E 129°16'510.0
2019-Jul-17 11:00N 35°03' E 129°11'612.3
2019-Jul-17 10:30N 35°06' E 129°05'2 3.1
2019-Jul-17 10:00N 35°07' E 129°03'0 0.0
2019-Jul-17 09:27N 35°07' E 129°03'0 0.0
2019-Jul-17 09:00N 35°07' E 129°03'0 0.0
2019-Jul-17 08:30N 35°07' E 129°03'0 0.0
2019-Jul-17 08:00N 35°07' E 129°03'0 0.0
2019-Jul-17 07:30N 35°07' E 129°03'0 0.0
2019-Jul-17 07:00N 35°07' E 129°03'0 0.0
2019-Jul-17 06:30N 35°07' E 129°03'0 0.0
2019-Jul-17 06:00N 35°07' E 129°03'0 0.0
2019-Jul-17 05:27N 35°07' E 129°03'0 0.0
2019-Jul-17 05:00N 35°07' E 129°03'0 0.0
2019-Jul-17 04:30N 35°07' E 129°03'0 0.0
2019-Jul-17 04:00N 35°07' E 129°03'0 0.0
2019-Jul-17 03:30N 35°07' E 129°03'0 0.0
2019-Jul-17 03:00N 35°07' E 129°03'0 0.0
2019-Jul-17 02:30N 35°07' E 129°03'0 0.0
2019-Jul-17 02:00N 35°07' E 129°03'0 0.0
2019-Jul-17 01:30N 35°07' E 129°03'0 0.0
2019-Jul-17 01:00N 35°07' E 129°03'0 0.0
2019-Jul-17 00:30N 35°07' E 129°03'0 0.0
2019-Jul-17 00:00N 35°07' E 129°03'0 0.3
2019-Jul-16 23:30N 35°07' E 129°03'4 8.2
2019-Jul-16 23:00N 35°05' E 129°07'714.2
2019-Jul-16 22:31N 35°05' E 129°16'228 8.6
2019-Jul-15 20:04N 35°45' E 133°51'1213.3
2019-Jul-15 19:11N 35°49' E 134°05'413.2
2019-Jul-15 18:55N 35°51' E 134°09'18 0.4
2019-Jul-13 21:02N 35°51' E 133°47'216 7.1
2019-Jul-12 14:44N 34°58' E 129°30'314.6
2019-Jul-12 14:30N 34°59' E 129°26'714.1
2019-Jul-12 13:59N 35°01' E 129°17'714.0
2019-Jul-12 13:30N 35°03' E 129°09'510.6
2019-Jul-12 13:00N 35°06' E 129°04'1 2.6
2019-Jul-12 12:30N 35°07' E 129°03'0 0.0
2019-Jul-12 12:00N 35°07' E 129°03'0 0.0
2019-Jul-12 11:30N 35°07' E 129°03'0 0.0
2019-Jul-12 11:00N 35°07' E 129°03'0 0.0
2019-Jul-12 10:30N 35°07' E 129°03'0 0.0
2019-Jul-12 10:00N 35°07' E 129°03'0 0.0
2019-Jul-12 09:30N 35°07' E 129°03'0 0.0
2019-Jul-12 09:00N 35°07' E 129°03'0 0.0
2019-Jul-12 08:30N 35°07' E 129°03'0 0.0
2019-Jul-12 08:00N 35°07' E 129°03'0 0.0
2019-Jul-12 07:30N 35°07' E 129°03'0 0.0
2019-Jul-12 07:00N 35°07' E 129°03'0 0.0
2019-Jul-12 06:30N 35°07' E 129°03'0 0.0
2019-Jul-12 06:00N 35°07' E 129°03'0 0.0
2019-Jul-12 05:30N 35°07' E 129°03'0 0.0
2019-Jul-12 05:00N 35°07' E 129°03'0 0.0
2019-Jul-12 04:30N 35°07' E 129°03'0 0.8
2019-Jul-12 04:00N 35°07' E 129°04'5 9.2
2019-Jul-12 03:30N 35°04' E 129°08'814.7
2019-Jul-12 02:58N 35°06' E 129°18'22116.3
2019-Jul-11 13:26N 35°56' E 133°42'1317.1
2019-Jul-11 12:42N 36°00' E 133°57'1317.4
2019-Jul-11 11:58N 36°04' E 134°12'  

Dump ship's entire track history